Aviation Digital Data Service (ADDS)

Output produced by METARs form (1209 UTC 15 November 2018)
found at http://www.aviationweather.gov/metar/data/
 
OTBD 151130Z 11014KT CAVOK 29/23 Q1011 NOSIG
TAF OTBD 151102Z 1512/1618 11013KT CAVOK 
     TEMPO 1601/1603 12003KT
       
OTBH 151156Z 10013KT 6000 HZ SCT250 32/20 A2987 RMK AO2A SLP116 T03150195 10321 20294 57019 $
TAF OTBH 150700Z 1507/1613 14015G25KT 9000 HZ FEW250 QNH2992INS 
     BECMG 1511/1512 12010G15KT 9000 HZ FEW250 QNH2990INS 
     BECMG 1513/1514 11009KT 8000 HZ FEW250 QNH2993INS 
     BECMG 1606/1607 15015G20KT 9000 HZ SCT250 QNH2995INS TX31/1511Z TN23/1518Z